createdAt,value
2022-12-31T00:00:10.426Z,100.67
2022-12-31T00:03:35.735Z,85.33
2022-12-31T00:06:41.172Z,95.33
2022-12-31T00:09:44.774Z,94.00
2022-12-31T00:12:48.701Z,91.67
2022-12-31T00:15:52.713Z,90.00
2022-12-31T00:19:00.240Z,102.00
2022-12-31T00:22:05.768Z,64.00
2022-12-31T00:25:11.190Z,98.67
2022-12-31T00:28:14.736Z,98.00
2022-12-31T00:31:21.542Z,96.00
2022-12-31T00:34:29.403Z,91.00
2022-12-31T00:37:34.903Z,99.33
2022-12-31T00:40:40.314Z,116.00
2022-12-31T00:43:45.289Z,73.33
2022-12-31T00:46:50.693Z,101.33
2022-12-31T00:49:56.937Z,84.67
2022-12-31T00:53:02.273Z,107.67
2022-12-31T00:56:12.962Z,95.00
2022-12-31T00:59:19.447Z,82.00
2022-12-31T01:02:24.551Z,91.00
2022-12-31T01:05:28.244Z,97.33
2022-12-31T01:08:35.963Z,100.00
2022-12-31T01:11:59.494Z,84.33
2022-12-31T01:15:04.591Z,96.33
2022-12-31T01:18:09.692Z,92.67
2022-12-31T01:21:15.832Z,108.67
2022-12-31T01:24:22.399Z,73.00
2022-12-31T01:27:26.453Z,79.33
2022-12-31T01:30:35.131Z,88.33
2022-12-31T01:33:43.696Z,87.67
2022-12-31T01:36:48.001Z,93.67
2022-12-31T01:39:55.496Z,86.00
2022-12-31T01:43:00.142Z,95.67
2022-12-31T01:46:08.750Z,80.00
2022-12-31T01:49:18.473Z,92.00
2022-12-31T01:52:27.228Z,97.33
2022-12-31T01:55:39.676Z,109.33
2022-12-31T01:58:50.898Z,113.00
2022-12-31T02:01:56.157Z,95.67
2022-12-31T02:05:04.324Z,89.33
2022-12-31T02:08:08.234Z,95.67
2022-12-31T02:11:27.700Z,106.67
2022-12-31T02:14:37.171Z,90.33
2022-12-31T02:17:49.277Z,92.67
2022-12-31T02:21:16.798Z,87.67
2022-12-31T02:25:05.360Z,92.33
2022-12-31T02:28:28.906Z,93.00
2022-12-31T02:31:38.680Z,87.33
2022-12-31T02:34:49.097Z,80.67
2022-12-31T02:38:00.235Z,92.67
2022-12-31T02:41:04.306Z,97.33
2022-12-31T02:44:23.066Z,86.33
2022-12-31T02:47:41.582Z,87.00
2022-12-31T02:50:59.174Z,91.33
2022-12-31T02:54:21.250Z,92.33
2022-12-31T02:57:35.701Z,96.33
2022-12-31T03:01:04.073Z,88.33
2022-12-31T03:04:25.008Z,96.00
2022-12-31T03:07:36.420Z,93.33
2022-12-31T03:10:42.798Z,88.00
2022-12-31T03:13:45.263Z,87.00
2022-12-31T03:16:50.672Z,85.00
2022-12-31T03:20:15.333Z,90.33
2022-12-31T03:23:26.526Z,87.67
2022-12-31T03:26:29.180Z,83.00
2022-12-31T03:29:33.474Z,94.33
2022-12-31T03:32:37.422Z,96.00
2022-12-31T03:35:44.432Z,78.33
2022-12-31T03:38:52.703Z,86.67
2022-12-31T03:41:56.772Z,92.33
2022-12-31T03:45:00.558Z,86.67
2022-12-31T03:48:07.059Z,91.00
2022-12-31T03:51:13.629Z,106.33
2022-12-31T03:54:19.199Z,93.33
2022-12-31T03:57:22.792Z,89.33
2022-12-31T04:00:27.205Z,89.33
2022-12-31T04:03:30.667Z,95.33
2022-12-31T04:06:37.221Z,94.00
2022-12-31T04:09:41.240Z,67.33
2022-12-31T04:12:45.882Z,90.00
2022-12-31T04:15:52.262Z,97.33
2022-12-31T04:19:01.284Z,83.33
2022-12-31T04:22:06.845Z,97.33
2022-12-31T04:25:12.113Z,86.33
2022-12-31T04:28:16.839Z,88.00
2022-12-31T04:31:20.805Z,90.00
2022-12-31T04:34:24.327Z,95.67
2022-12-31T04:37:31.722Z,86.00
2022-12-31T04:40:56.453Z,83.33
2022-12-31T04:44:01.301Z,87.00
2022-12-31T04:47:05.149Z,94.67
2022-12-31T04:50:09.540Z,90.00
2022-12-31T04:53:14.551Z,85.67
2022-12-31T04:56:18.596Z,76.00
2022-12-31T04:59:22.118Z,87.67
2022-12-31T05:02:27.423Z,77.00
2022-12-31T05:05:31.493Z,84.67
2022-12-31T05:08:42.253Z,83.00
2022-12-31T05:11:46.473Z,83.33
2022-12-31T05:14:52.082Z,79.00
2022-12-31T05:17:55.791Z,87.00
2022-12-31T05:21:03.739Z,101.00
2022-12-31T05:24:09.622Z,83.67
2022-12-31T05:27:13.741Z,85.00
2022-12-31T05:30:18.699Z,93.33
2022-12-31T05:33:23.079Z,102.00
2022-12-31T05:36:26.761Z,107.67
2022-12-31T05:39:32.336Z,83.67
2022-12-31T05:42:36.418Z,93.00
2022-12-31T05:45:40.922Z,164.25
2022-12-31T05:48:44.373Z,82.00
2022-12-31T05:51:49.276Z,79.00
2022-12-31T05:54:54.565Z,118.00
2022-12-31T05:57:58.299Z,106.00
2022-12-31T06:01:04.278Z,69.00
2022-12-31T06:04:09.387Z,95.33
2022-12-31T06:07:14.596Z,83.67
2022-12-31T06:10:20.025Z,80.33
2022-12-31T06:13:23.619Z,109.67
2022-12-31T06:16:28.871Z,87.33
2022-12-31T06:19:32.723Z,93.00
2022-12-31T06:22:37.184Z,78.00
2022-12-31T06:25:44.265Z,78.67
2022-12-31T06:28:51.357Z,53.33
2022-12-31T06:31:56.886Z,73.00
2022-12-31T06:35:00.972Z,80.00
2022-12-31T06:38:05.893Z,56.67
2022-12-31T06:41:16.109Z,105.33
2022-12-31T06:44:22.420Z,93.67
2022-12-31T06:47:29.664Z,113.67
2022-12-31T06:50:33.339Z,99.67
2022-12-31T06:53:38.947Z,100.33
2022-12-31T06:57:03.151Z,113.33
2022-12-31T07:00:11.355Z,94.00
2022-12-31T07:03:30.889Z,102.67
2022-12-31T07:06:45.148Z,105.67
2022-12-31T07:10:01.032Z,91.33
2022-12-31T07:13:37.364Z,222.75
2022-12-31T07:16:57.596Z,192.00
2022-12-31T07:20:07.186Z,126.00
2022-12-31T07:23:12.397Z,194.25
2022-12-31T07:26:28.693Z,135.25
2022-12-31T07:29:47.700Z,116.33
2022-12-31T07:33:13.334Z,124.33
2022-12-31T07:36:33.457Z,157.50
2022-12-31T07:39:43.479Z,156.75
2022-12-31T07:43:05.735Z,165.75
2022-12-31T07:46:18.663Z,273.25
2022-12-31T07:49:25.100Z,263.25
2022-12-31T07:52:29.757Z,234.75
2022-12-31T07:55:35.303Z,221.75
2022-12-31T07:58:55.795Z,226.50
2022-12-31T08:02:30.361Z,218.50
2022-12-31T08:05:47.622Z,194.75
2022-12-31T08:09:01.964Z,301.25
2022-12-31T08:12:11.375Z,350.00
2022-12-31T08:15:16.968Z,345.00
2022-12-31T08:18:23.460Z,318.75
2022-12-31T08:21:52.253Z,248.00
2022-12-31T08:25:12.721Z,270.75
2022-12-31T08:28:28.404Z,265.75
2022-12-31T08:31:45.315Z,248.50
2022-12-31T08:35:01.032Z,218.25
2022-12-31T08:38:18.907Z,193.50
2022-12-31T08:41:30.487Z,199.25
2022-12-31T08:44:41.508Z,237.00
2022-12-31T08:47:59.886Z,246.00
2022-12-31T08:51:19.103Z,225.50
2022-12-31T08:54:23.560Z,214.50
2022-12-31T08:57:34.768Z,249.75
2022-12-31T09:00:41.909Z,192.75
2022-12-31T09:04:05.675Z,186.50
2022-12-31T09:07:15.430Z,209.00
2022-12-31T09:10:26.007Z,221.50
2022-12-31T09:13:39.096Z,203.50
2022-12-31T09:16:55.646Z,199.50
2022-12-31T09:20:00.342Z,173.00
2022-12-31T09:23:07.267Z,215.75
2022-12-31T09:26:37.128Z,140.50
2022-12-31T09:29:50.267Z,152.25
2022-12-31T09:33:02.713Z,128.00
2022-12-31T09:36:09.380Z,106.33
2022-12-31T09:39:18.296Z,96.00
2022-12-31T09:42:49.962Z,106.33
2022-12-31T09:46:19.220Z,106.00
2022-12-31T09:49:56.538Z,84.67
2022-12-31T09:53:21.541Z,83.00
2022-12-31T09:56:32.973Z,80.67
2022-12-31T09:59:44.032Z,72.25
2022-12-31T10:03:08.627Z,59.00
2022-12-31T10:06:27.155Z,61.25
2022-12-31T10:09:44.684Z,57.00
2022-12-31T10:13:11.818Z,56.75
2022-12-31T10:16:42.737Z,59.25
2022-12-31T10:20:10.120Z,64.00
2022-12-31T10:23:28.013Z,59.25
2022-12-31T10:26:53.873Z,59.25
2022-12-31T10:30:13.294Z,58.75
2022-12-31T10:33:26.052Z,54.00
2022-12-31T10:36:48.734Z,47.00
2022-12-31T10:40:06.792Z,54.00
2022-12-31T10:43:44.156Z,50.00
2022-12-31T10:47:04.018Z,55.00
2022-12-31T10:50:46.389Z,50.75
2022-12-31T10:54:17.099Z,55.25
2022-12-31T10:58:04.291Z,59.00
2022-12-31T11:01:20.045Z,65.50
2022-12-31T11:04:58.854Z,64.25
2022-12-31T11:08:19.411Z,49.50
2022-12-31T11:11:33.047Z,43.75
2022-12-31T11:14:52.202Z,43.25
2022-12-31T11:18:07.209Z,43.50
2022-12-31T11:21:41.329Z,41.00
2022-12-31T11:25:07.996Z,42.25
2022-12-31T11:28:32.254Z,43.00
2022-12-31T11:32:05.272Z,40.00
2022-12-31T11:35:23.533Z,35.25
2022-12-31T11:38:32.092Z,52.75
2022-12-31T11:41:44.429Z,47.25
2022-12-31T11:44:55.412Z,28.50
2022-12-31T11:48:30.295Z,36.00
2022-12-31T11:51:50.810Z,39.50
2022-12-31T11:55:13.675Z,36.50
2022-12-31T11:58:23.348Z,37.75
2022-12-31T12:01:33.350Z,37.75
2022-12-31T12:04:38.048Z,38.00
2022-12-31T12:07:44.300Z,52.50
2022-12-31T12:11:05.113Z,56.75
2022-12-31T12:14:21.320Z,43.75
2022-12-31T12:17:52.802Z,48.25
2022-12-31T12:21:14.032Z,42.00
2022-12-31T12:24:31.102Z,43.50
2022-12-31T12:27:40.911Z,61.00
2022-12-31T12:30:47.125Z,55.00
2022-12-31T12:33:57.027Z,47.00
2022-12-31T12:37:03.673Z,44.25
2022-12-31T12:40:19.983Z,35.25
2022-12-31T12:43:28.948Z,55.75
2022-12-31T12:46:35.840Z,64.00
2022-12-31T12:49:44.596Z,46.25
2022-12-31T12:53:15.607Z,41.00
2022-12-31T12:56:31.826Z,41.00
2022-12-31T12:59:54.615Z,56.25
2022-12-31T13:03:48.739Z,46.75
2022-12-31T13:07:18.185Z,47.75
2022-12-31T13:10:41.642Z,55.50
2022-12-31T13:13:54.067Z,52.00
2022-12-31T13:17:10.183Z,64.50
2022-12-31T13:20:25.160Z,71.50
2022-12-31T13:23:39.875Z,47.50
2022-12-31T13:26:53.927Z,55.75
2022-12-31T13:30:03.588Z,56.00
2022-12-31T13:33:17.440Z,55.25
2022-12-31T13:36:26.316Z,58.00
2022-12-31T13:39:34.881Z,51.50
2022-12-31T13:42:50.162Z,46.75
2022-12-31T13:46:04.785Z,52.25
2022-12-31T13:49:29.751Z,51.00
2022-12-31T13:52:37.768Z,60.00
2022-12-31T13:55:46.307Z,75.75
2022-12-31T13:58:56.049Z,90.00
2022-12-31T14:02:11.147Z,84.75
2022-12-31T14:05:29.727Z,85.25
2022-12-31T14:08:34.016Z,90.25
2022-12-31T14:11:54.852Z,100.67
2022-12-31T14:15:09.796Z,110.00
2022-12-31T14:18:21.825Z,112.67
2022-12-31T14:21:34.123Z,131.67
2022-12-31T14:24:48.742Z,128.67
2022-12-31T14:28:01.717Z,151.67
2022-12-31T14:31:24.371Z,133.67
2022-12-31T14:34:44.607Z,93.00
2022-12-31T14:37:59.376Z,93.25
2022-12-31T14:41:22.781Z,98.00
2022-12-31T14:44:36.956Z,122.33
2022-12-31T14:47:52.442Z,146.00
2022-12-31T14:50:56.878Z,137.00
2022-12-31T14:54:05.887Z,136.67
2022-12-31T14:57:12.561Z,124.67
2022-12-31T15:00:33.487Z,108.67
2022-12-31T15:03:45.908Z,109.00
2022-12-31T15:06:59.984Z,87.00
2022-12-31T15:10:18.049Z,83.50
2022-12-31T15:13:39.339Z,99.67
2022-12-31T15:16:53.772Z,86.50
2022-12-31T15:20:37.592Z,85.25
2022-12-31T15:23:45.742Z,96.00
2022-12-31T15:26:54.250Z,106.33
2022-12-31T15:29:59.015Z,90.00
2022-12-31T15:33:31.668Z,102.33
2022-12-31T16:01:18.803Z,121.67
2022-12-31T16:04:26.758Z,125.33
2022-12-31T16:07:36.841Z,98.33
2022-12-31T16:10:45.455Z,73.25
2022-12-31T16:13:52.035Z,80.67
2022-12-31T16:16:59.595Z,90.00
2022-12-31T16:20:21.533Z,94.67
2022-12-31T16:23:27.708Z,97.00
2022-12-31T16:26:38.399Z,84.67
2022-12-31T16:29:50.626Z,115.67
2022-12-31T16:33:02.693Z,85.00
2022-12-31T16:36:06.962Z,74.33
2022-12-31T16:39:27.670Z,119.67
2022-12-31T16:42:31.978Z,126.67
2022-12-31T16:45:37.170Z,87.00
2022-12-31T16:48:47.488Z,95.33
2022-12-31T16:51:51.252Z,92.33
2022-12-31T16:54:57.066Z,89.67
2022-12-31T16:58:06.279Z,96.00
2022-12-31T17:01:19.751Z,140.00
2022-12-31T17:04:34.670Z,77.00
2022-12-31T17:07:41.876Z,78.67
2022-12-31T17:10:48.778Z,80.33
2022-12-31T17:13:58.798Z,130.33
2022-12-31T17:17:05.129Z,114.67
2022-12-31T17:20:24.159Z,184.75
2022-12-31T17:23:32.727Z,73.67
2022-12-31T17:26:39.604Z,129.33
2022-12-31T17:29:51.639Z,126.67
2022-12-31T17:33:01.553Z,91.67
2022-12-31T17:36:25.193Z,104.33
2022-12-31T17:39:43.584Z,139.50
2022-12-31T17:42:47.716Z,94.00
2022-12-31T17:45:53.201Z,79.00
2022-12-31T17:49:01.962Z,89.33
2022-12-31T17:52:13.348Z,87.67
2022-12-31T17:55:17.502Z,88.33
2022-12-31T17:58:29.765Z,82.67
2022-12-31T18:01:34.346Z,117.67
2022-12-31T18:04:38.972Z,122.00
2022-12-31T18:07:44.693Z,130.33
2022-12-31T18:10:49.973Z,169.50
2022-12-31T18:13:54.954Z,112.33
2022-12-31T18:16:59.195Z,90.00
2022-12-31T18:20:08.351Z,90.67
2022-12-31T18:23:24.729Z,115.67
2022-12-31T18:26:28.841Z,106.33
2022-12-31T18:29:34.143Z,102.00
2022-12-31T18:32:39.786Z,113.33
2022-12-31T18:39:10.521Z,87.33
2022-12-31T18:42:17.064Z,94.33
2022-12-31T18:45:25.300Z,130.00
2022-12-31T18:48:29.970Z,113.33
2022-12-31T18:51:37.874Z,100.00
2022-12-31T18:54:46.756Z,86.33
2022-12-31T18:57:51.427Z,94.67
2022-12-31T19:00:55.807Z,132.00
2022-12-31T19:04:04.416Z,102.00
2022-12-31T19:07:09.547Z,88.00
2022-12-31T19:10:17.198Z,86.33
2022-12-31T19:13:23.399Z,95.00
2022-12-31T19:16:30.527Z,175.75
2022-12-31T19:19:42.894Z,124.25
2022-12-31T19:22:47.656Z,121.00
2022-12-31T19:26:02.778Z,95.00
2022-12-31T19:29:07.574Z,107.33
2022-12-31T19:32:11.778Z,104.00
2022-12-31T19:35:17.261Z,89.00
2022-12-31T19:38:24.161Z,101.67
2022-12-31T19:41:30.634Z,97.67
2022-12-31T19:44:35.999Z,92.00
2022-12-31T19:47:42.063Z,209.75
2022-12-31T19:50:49.086Z,113.67
2022-12-31T19:53:54.661Z,100.33
2022-12-31T19:56:59.772Z,99.33
2022-12-31T20:00:03.317Z,160.50
2022-12-31T20:03:18.929Z,143.25
2022-12-31T20:06:25.697Z,166.25
2022-12-31T20:09:30.817Z,161.50
2022-12-31T20:12:44.401Z,162.25
2022-12-31T20:15:49.300Z,169.75
2022-12-31T20:18:52.948Z,170.75
2022-12-31T20:22:02.292Z,103.67
2022-12-31T20:25:06.644Z,107.00
2022-12-31T20:28:14.249Z,119.67
2022-12-31T20:31:23.852Z,154.00
2022-12-31T20:34:29.343Z,124.67
2022-12-31T20:37:32.900Z,78.67
2022-12-31T20:40:41.433Z,79.00
2022-12-31T20:43:52.190Z,121.67
2022-12-31T20:46:59.631Z,144.75
2022-12-31T20:50:13.402Z,83.33
2022-12-31T20:53:18.201Z,87.67
2022-12-31T20:56:21.744Z,121.50
2022-12-31T20:59:29.223Z,109.33
2022-12-31T21:02:41.429Z,95.33
2022-12-31T21:05:51.577Z,104.00
2022-12-31T21:08:56.241Z,94.00
2022-12-31T21:12:18.956Z,78.33
2022-12-31T21:15:23.882Z,86.00
2022-12-31T21:18:27.897Z,133.67
2022-12-31T21:21:31.695Z,127.75
2022-12-31T21:24:43.288Z,129.00
2022-12-31T21:27:46.742Z,102.00
2022-12-31T21:30:58.402Z,90.33
2022-12-31T21:34:03.552Z,103.33
2022-12-31T21:37:08.446Z,103.00
2022-12-31T21:40:37.633Z,133.33
2022-12-31T21:43:42.384Z,161.00
2022-12-31T21:47:24.884Z,82.00
2022-12-31T21:50:14.927Z,80.33
2022-12-31T21:53:24.768Z,83.33
2022-12-31T21:56:29.737Z,84.00
2022-12-31T21:59:48.953Z,97.33
2022-12-31T22:03:21.987Z,114.33
2022-12-31T22:06:26.057Z,103.00
2022-12-31T22:10:24.066Z,102.00
2022-12-31T22:13:27.925Z,91.67
2022-12-31T22:16:32.361Z,78.33
2022-12-31T22:20:00.938Z,98.33
2022-12-31T22:23:10.495Z,79.00
2022-12-31T22:26:20.833Z,91.33
2022-12-31T22:29:29.229Z,86.33
2022-12-31T22:32:33.280Z,107.67
2022-12-31T22:35:42.744Z,90.33
2022-12-31T22:38:49.139Z,100.33
2022-12-31T22:41:55.215Z,99.00
2022-12-31T22:45:02.449Z,98.00
2022-12-31T22:48:09.930Z,82.00
2022-12-31T22:51:17.837Z,96.00
2022-12-31T22:54:21.944Z,115.00
2022-12-31T22:57:30.993Z,93.67
2022-12-31T23:00:40.290Z,111.67
2022-12-31T23:03:50.682Z,132.00
2022-12-31T23:06:56.390Z,111.33
2022-12-31T23:10:17.234Z,128.00
2022-12-31T23:13:39.855Z,100.00
2022-12-31T23:17:29.854Z,98.00
2022-12-31T23:20:46.787Z,124.33
2022-12-31T23:23:56.265Z,112.67
2022-12-31T23:27:01.801Z,140.00
2022-12-31T23:30:06.257Z,100.33
2022-12-31T23:37:56.276Z,157.00
2022-12-31T23:41:12.984Z,86.33
2022-12-31T23:44:16.591Z,84.33
2022-12-31T23:47:26.300Z,91.33
2022-12-31T23:50:30.309Z,114.33
2022-12-31T23:53:34.627Z,136.00
2022-12-31T23:56:42.417Z,141.75
2022-12-31T23:59:46.747Z,111.50
